createdAt,value
2018-12-31T00:01:51.156Z,7.3
2018-12-31T00:06:56.771Z,7.2
2018-12-31T00:12:02.876Z,6.5
2018-12-31T00:17:09.333Z,4.6
2018-12-31T00:22:14.228Z,6.9
2018-12-31T00:27:20.087Z,5.7
2018-12-31T00:32:25.941Z,5.8
2018-12-31T00:37:31.100Z,6
2018-12-31T00:42:36.871Z,5.2
2018-12-31T00:47:42.871Z,6.4
2018-12-31T00:52:48.272Z,4.3
2018-12-31T00:57:54.570Z,5.2
2018-12-31T01:03:00.556Z,5.9
2018-12-31T01:08:06.440Z,5
2018-12-31T01:13:11.839Z,4.1
2018-12-31T01:18:15.923Z,6
2018-12-31T01:23:21.047Z,4.5
2018-12-31T01:28:26.123Z,5
2018-12-31T01:33:30.989Z,4
2018-12-31T01:38:36.906Z,5.2
2018-12-31T01:43:42.488Z,4.6
2018-12-31T01:48:47.879Z,4.9
2018-12-31T01:53:53.020Z,5.1
2018-12-31T01:58:59.016Z,4
2018-12-31T02:04:04.296Z,4.7
2018-12-31T02:09:10.444Z,3.2
2018-12-31T02:14:16.240Z,4
2018-12-31T02:19:21.457Z,3.5
2018-12-31T02:24:26.963Z,3.8
2018-12-31T02:29:33.111Z,3.5
2018-12-31T02:34:39.016Z,4.6
2018-12-31T02:39:44.515Z,5.2
2018-12-31T02:44:50.340Z,3.1
2018-12-31T02:49:55.694Z,3.4
2018-12-31T02:55:00.546Z,3.2
2018-12-31T03:00:06.167Z,3.7
2018-12-31T03:05:10.309Z,3.4
2018-12-31T03:10:14.432Z,3.4
2018-12-31T03:15:17.891Z,4
2018-12-31T03:20:21.904Z,4.2
2018-12-31T03:25:26.620Z,3.5
2018-12-31T03:30:30.810Z,3
2018-12-31T03:35:36.431Z,3.3
2018-12-31T03:40:40.163Z,2.6
2018-12-31T03:45:45.194Z,4.5
2018-12-31T03:50:50.285Z,3.2
2018-12-31T03:55:55.772Z,3.7
2018-12-31T04:01:01.598Z,2.9
2018-12-31T04:06:06.821Z,4.2
2018-12-31T04:11:12.309Z,2.8
2018-12-31T04:16:17.996Z,3.5
2018-12-31T04:21:23.938Z,3.2
2018-12-31T04:26:28.883Z,3.4
2018-12-31T04:31:35.372Z,2.6
2018-12-31T04:36:40.846Z,3.7
2018-12-31T04:41:46.110Z,3.4
2018-12-31T04:46:51.284Z,3.1
2018-12-31T04:51:56.937Z,3
2018-12-31T04:57:01.539Z,4
2018-12-31T05:02:07.785Z,2.6
2018-12-31T05:07:13.212Z,3
2018-12-31T05:12:16.705Z,2.5
2018-12-31T05:17:22.810Z,2.7
2018-12-31T05:22:27.352Z,2.9
2018-12-31T05:27:32.825Z,2.7
2018-12-31T05:32:38.776Z,2.4
2018-12-31T05:37:46.555Z,3.4
2018-12-31T05:42:53.862Z,2.9
2018-12-31T05:47:57.370Z,2.9
2018-12-31T05:53:03.206Z,3.9
2018-12-31T05:58:09.155Z,3.3
2018-12-31T06:03:15.573Z,4.1
2018-12-31T06:08:19.134Z,2.1
2018-12-31T06:13:25.257Z,4.1
2018-12-31T06:18:30.755Z,6.5
2018-12-31T06:23:35.878Z,9.4
2018-12-31T06:28:40.972Z,11
2018-12-31T06:33:46.147Z,6.7
2018-12-31T06:38:52.194Z,9.4
2018-12-31T06:43:57.193Z,8
2018-12-31T06:49:02.092Z,6.6
2018-12-31T06:54:06.796Z,7.9
2018-12-31T06:59:11.691Z,13.2
2018-12-31T07:04:16.818Z,9.9
2018-12-31T07:09:21.012Z,10.9
2018-12-31T07:14:26.730Z,13.1
2018-12-31T07:19:31.658Z,14.1
2018-12-31T07:24:38.180Z,14.7
2018-12-31T07:29:43.822Z,10.6
2018-12-31T07:34:48.908Z,10.8
2018-12-31T07:39:54.070Z,10.3
2018-12-31T07:45:00.443Z,28.3
2018-12-31T07:50:06.389Z,17.7
2018-12-31T07:55:12.059Z,11
2018-12-31T08:00:17.463Z,10.7
2018-12-31T08:05:21.791Z,10.6
2018-12-31T08:10:27.587Z,9.1
2018-12-31T08:15:33.288Z,12.5
2018-12-31T08:20:37.219Z,18.7
2018-12-31T08:25:41.882Z,15.2
2018-12-31T08:30:47.401Z,12.1
2018-12-31T08:35:53.281Z,17.9
2018-12-31T08:40:59.575Z,12.8
2018-12-31T08:46:05.403Z,13.9
2018-12-31T08:51:09.848Z,11.7
2018-12-31T08:56:16.212Z,18.4
2018-12-31T09:01:21.262Z,13.6
2018-12-31T09:06:26.748Z,17.1
2018-12-31T09:11:31.135Z,14.7
2018-12-31T09:16:37.395Z,12.6
2018-12-31T09:21:42.508Z,14
2018-12-31T09:26:48.473Z,12.9
2018-12-31T09:31:54.086Z,10.7
2018-12-31T09:37:00.074Z,14
2018-12-31T09:42:05.507Z,14.7
2018-12-31T09:47:05.836Z,11.3
2018-12-31T09:52:11.630Z,12.3
2018-12-31T09:57:17.178Z,11.7
2018-12-31T10:02:22.783Z,14.7
2018-12-31T10:07:28.559Z,12.3
2018-12-31T10:12:34.428Z,14.5
2018-12-31T10:17:38.461Z,14.7
2018-12-31T10:22:44.250Z,11.7
2018-12-31T10:27:52.136Z,15.6
2018-12-31T10:32:57.186Z,13.5
2018-12-31T10:38:03.673Z,15.7
2018-12-31T10:43:09.557Z,12.4
2018-12-31T10:48:15.499Z,13.1
2018-12-31T10:53:22.213Z,12.2
2018-12-31T10:58:28.117Z,17.7
2018-12-31T11:03:33.572Z,11.6
2018-12-31T11:08:39.362Z,12
2018-12-31T11:13:45.047Z,14.3
2018-12-31T11:18:50.201Z,15
2018-12-31T11:23:55.652Z,14.4
2018-12-31T11:29:01.437Z,18.8
2018-12-31T11:34:05.979Z,13.1
2018-12-31T11:39:11.589Z,10.6
2018-12-31T11:44:17.446Z,10
2018-12-31T11:49:24.240Z,9.6
2018-12-31T11:54:29.163Z,11.7
2018-12-31T11:59:33.657Z,10.7
2018-12-31T12:04:37.155Z,7.1
2018-12-31T12:09:42.974Z,11
2018-12-31T12:14:48.665Z,10.7
2018-12-31T12:19:53.931Z,10.9
2018-12-31T12:25:01.371Z,11.7
2018-12-31T12:30:05.700Z,13.5
2018-12-31T12:35:12.941Z,11.6
2018-12-31T12:40:18.456Z,9.5
2018-12-31T12:45:25.222Z,7.5
2018-12-31T12:50:30.366Z,7.2
2018-12-31T12:55:36.757Z,15.2
2018-12-31T13:00:42.548Z,16.3
2018-12-31T13:05:48.402Z,16.3
2018-12-31T13:10:54.155Z,24.1
2018-12-31T13:15:59.985Z,22.5
2018-12-31T13:21:05.815Z,21.7
2018-12-31T13:26:11.391Z,18.1
2018-12-31T13:31:16.499Z,17.1
2018-12-31T13:36:22.100Z,17.6
2018-12-31T13:41:29.304Z,19.8
2018-12-31T13:46:35.156Z,16.1
2018-12-31T13:51:40.850Z,27.8
2018-12-31T13:56:46.020Z,45.6
2018-12-31T14:01:52.361Z,39.3
2018-12-31T14:06:57.379Z,44.1
2018-12-31T14:12:03.878Z,45.1
2018-12-31T14:17:08.248Z,44.6
2018-12-31T14:22:13.313Z,45.6
2018-12-31T14:27:18.432Z,41.7
2018-12-31T14:32:24.428Z,39
2018-12-31T14:37:29.063Z,41.2
2018-12-31T14:42:34.456Z,41.5
2018-12-31T14:47:39.804Z,40.2
2018-12-31T14:52:45.309Z,40.2
2018-12-31T14:57:50.372Z,32.9
2018-12-31T15:02:55.773Z,35.1
2018-12-31T15:08:00.536Z,34.3
2018-12-31T15:13:05.794Z,31.3
2018-12-31T15:18:10.725Z,34.4
2018-12-31T15:23:15.392Z,30
2018-12-31T15:28:21.197Z,28.3
2018-12-31T15:33:27.215Z,24.6
2018-12-31T15:38:32.119Z,27
2018-12-31T15:43:37.471Z,28.4
2018-12-31T15:48:43.123Z,25.5
2018-12-31T15:53:49.429Z,24.6
2018-12-31T15:58:54.168Z,23.1
2018-12-31T16:04:00.048Z,22.7
2018-12-31T16:09:05.404Z,20.9
2018-12-31T16:14:11.310Z,19
2018-12-31T16:19:16.640Z,22.3
2018-12-31T16:24:22.544Z,23.2
2018-12-31T16:29:27.653Z,23.4
2018-12-31T16:34:33.273Z,21.2
2018-12-31T16:39:38.506Z,20.4
2018-12-31T16:44:43.818Z,20
2018-12-31T16:49:49.723Z,19.2
2018-12-31T16:54:58.272Z,18.4
2018-12-31T17:00:03.778Z,18.7
2018-12-31T17:05:08.799Z,17.1
2018-12-31T17:10:13.791Z,18.4
2018-12-31T17:15:19.277Z,17.6
2018-12-31T17:20:24.267Z,17.8
2018-12-31T17:25:34.292Z,16.7
2018-12-31T17:30:39.225Z,15
2018-12-31T17:35:42.652Z,14.9
2018-12-31T17:40:47.658Z,14.4
2018-12-31T17:45:55.567Z,16.7
2018-12-31T17:50:59.753Z,16.2
2018-12-31T17:56:07.120Z,14.8
2018-12-31T18:01:09.307Z,11.5
2018-12-31T18:06:14.820Z,14.6
2018-12-31T18:11:20.508Z,14.4
2018-12-31T18:16:26.609Z,12
2018-12-31T18:21:32.367Z,12.4
2018-12-31T18:26:33.029Z,10.9
2018-12-31T18:31:38.737Z,12
2018-12-31T18:36:43.131Z,12.2
2018-12-31T18:41:48.882Z,11.3
2018-12-31T18:46:55.219Z,11.3
2018-12-31T18:52:04.345Z,11
2018-12-31T18:57:10.635Z,12.6
2018-12-31T19:02:16.414Z,11.8
2018-12-31T19:07:22.078Z,10.5
2018-12-31T19:12:30.191Z,11.4
2018-12-31T19:17:34.341Z,9.3
2018-12-31T19:22:40.509Z,10.4
2018-12-31T19:27:44.244Z,10.5
2018-12-31T19:32:50.345Z,10
2018-12-31T19:37:55.805Z,10.7
2018-12-31T19:42:59.809Z,8.3
2018-12-31T19:48:04.442Z,10
2018-12-31T19:53:07.786Z,10.6
2018-12-31T19:58:12.084Z,9.2
2018-12-31T20:03:17.203Z,9.8
2018-12-31T20:08:21.288Z,10.6
2018-12-31T20:13:27.078Z,9.4
2018-12-31T20:18:33.041Z,9.5
2018-12-31T20:23:38.166Z,9.5
2018-12-31T20:28:44.562Z,9.3
2018-12-31T20:33:48.415Z,9.1
2018-12-31T20:38:53.869Z,11.2
2018-12-31T20:44:00.373Z,9
2018-12-31T20:49:05.828Z,10.6
2018-12-31T20:54:11.659Z,9.5
2018-12-31T20:59:17.920Z,9.7
2018-12-31T21:04:23.734Z,9.2
2018-12-31T21:09:30.133Z,9.7
2018-12-31T21:14:34.064Z,9.7
2018-12-31T21:19:38.537Z,10.8
2018-12-31T21:24:44.278Z,11.6
2018-12-31T21:29:47.997Z,11
2018-12-31T21:34:53.446Z,10.4
2018-12-31T21:39:59.733Z,9.4
2018-12-31T21:45:04.809Z,10.1
2018-12-31T21:50:10.936Z,10
2018-12-31T21:55:16.373Z,9.3
2018-12-31T22:00:22.357Z,10.4
2018-12-31T22:05:27.812Z,10.3
2018-12-31T22:10:34.163Z,10.3
2018-12-31T22:15:39.876Z,11.3
2018-12-31T22:20:45.282Z,10.4
2018-12-31T22:25:48.765Z,10.8
2018-12-31T22:30:52.235Z,10.2
2018-12-31T22:35:57.896Z,9.4
2018-12-31T22:41:04.606Z,10.5
2018-12-31T22:46:10.381Z,9.9
2018-12-31T22:51:14.598Z,11.3
2018-12-31T22:56:18.823Z,10
2018-12-31T23:01:24.927Z,8.7
2018-12-31T23:06:29.961Z,10.7
2018-12-31T23:11:35.404Z,9.4
2018-12-31T23:16:41.592Z,10.6
2018-12-31T23:21:47.102Z,10.9
2018-12-31T23:26:52.756Z,10.3
2018-12-31T23:31:57.816Z,10
2018-12-31T23:37:03.772Z,9.3
2018-12-31T23:42:10.460Z,9.8
2018-12-31T23:47:15.916Z,10.2
2018-12-31T23:52:20.204Z,10.5
2018-12-31T23:57:26.413Z,9.1
